Time;durP1;ratioP1;P1;durP2;ratioP2;P2;SDS_P1;SDS_P2;PMS_P1;PMS_P2;Temp;Humidity;BMP_temperature;BMP_pressure;BME280_temperature;BME280_humidity;BME280_pressure;Samples;Min_cycle;Max_cycle;Signal;HPM_P1;HPM_P2
2021/11/26 00:00:09;;;;;;;;;;;2.60;99.90;;;;;;5093112;28;20015;-48
2021/11/26 00:02:40;;;;;;;;;;;2.70;99.90;;;;;;5093766;28;19924;-48
2021/11/26 00:05:08;;;;;;;;;;;2.60;99.90;;;;;;5093525;28;20386;-49
2021/11/26 00:07:38;;;;;;;;;;;2.50;99.90;;;;;;5093812;28;19931;-47
2021/11/26 00:10:05;;;;;;;;;;;2.60;99.90;;;;;;5093781;28;19924;-48
2021/11/26 00:12:32;;;;;;;;;;;2.60;99.90;;;;;;5093759;28;19932;-48
2021/11/26 00:15:12;;;;;;;;;;;2.50;99.90;;;;;;5093774;28;19930;-48
2021/11/26 00:17:50;;;;;;;;;;;2.40;99.90;;;;;;5094247;28;19924;-48
2021/11/26 00:20:17;;;;;;;;;;;2.30;99.90;;;;;;5093513;28;19924;-48
2021/11/26 00:22:44;;;;;;;;;;;2.30;99.90;;;;;;5094028;28;19923;-49
2021/11/26 00:25:11;;;;;;;;;;;2.30;99.90;;;;;;5093293;28;19924;-48
2021/11/26 00:27:37;;;;;;;;;;;2.30;99.90;;;;;;5093376;28;19924;-49
2021/11/26 00:30:04;;;;;;;;;;;2.20;99.90;;;;;;5093922;28;19924;-49
2021/11/26 00:32:31;;;;;;;;;;;2.30;99.90;;;;;;5093398;28;19924;-48
2021/11/26 00:34:59;;;;;;;;;;;2.30;99.90;;;;;;5093773;28;19924;-49
2021/11/26 00:37:26;;;;;;;;;;;2.30;99.90;;;;;;5093350;28;19924;-49
2021/11/26 00:39:53;;;;;;;;;;;2.40;99.90;;;;;;5093808;28;19977;-48
2021/11/26 00:42:19;;;;;;;;;;;2.40;99.90;;;;;;5092072;28;19928;-48
2021/11/26 00:44:47;;;;;;;;;;;2.30;99.90;;;;;;5093566;28;19924;-49
2021/11/26 00:47:13;;;;;;;;;;;2.40;99.90;;;;;;5093421;28;19941;-47
2021/11/26 00:49:40;;;;;;;;;;;2.50;99.90;;;;;;5093507;28;19924;-48
2021/11/26 00:52:08;;;;;;;;;;;2.50;99.90;;;;;;5093207;28;19924;-49
2021/11/26 00:54:35;;;;;;;;;;;2.40;99.90;;;;;;5090717;28;19928;-49
2021/11/26 00:57:07;;;;;;;;;;;2.40;99.90;;;;;;5088979;28;19978;-48
2021/11/26 00:59:34;;;;;;;;;;;2.30;99.90;;;;;;5093190;28;19969;-48
2021/11/26 01:02:00;;;;;;;;;;;2.20;99.90;;;;;;5092656;28;20429;-48
2021/11/26 01:04:27;;;;;;;;;;;2.30;99.90;;;;;;5092150;28;19924;-49
2021/11/26 01:06:54;;;;;;;;;;;2.30;99.90;;;;;;5093093;28;20451;-49
2021/11/26 01:09:22;;;;;;;;;;;2.40;99.90;;;;;;5093093;28;19924;-48
2021/11/26 01:11:49;;;;;;;;;;;2.20;99.90;;;;;;5092810;28;20382;-48
2021/11/26 01:14:16;;;;;;;;;;;2.20;99.90;;;;;;5092854;28;20336;-48
2021/11/26 01:16:42;;;;;;;;;;;2.10;99.90;;;;;;5091698;28;20398;-48
2021/11/26 01:19:09;;;;;;;;;;;2.10;99.90;;;;;;5093231;28;19970;-48
2021/11/26 01:21:36;;;;;;;;;;;2.00;99.90;;;;;;5092982;28;20387;-49
2021/11/26 01:24:03;;;;;;;;;;;2.10;99.90;;;;;;5092714;28;19936;-48
2021/11/26 01:26:31;;;;;;;;;;;2.00;99.90;;;;;;5092387;28;19925;-49
2021/11/26 01:28:58;;;;;;;;;;;2.00;99.90;;;;;;5092597;28;19927;-48
2021/11/26 01:31:24;;;;;;;;;;;2.00;99.90;;;;;;5092754;28;19965;-48
2021/11/26 01:33:52;;;;;;;;;;;2.10;99.90;;;;;;5092399;28;19924;-48
2021/11/26 01:36:19;;;;;;;;;;;2.00;99.90;;;;;;5092447;28;19924;-48
2021/11/26 01:38:46;;;;;;;;;;;2.00;99.90;;;;;;5092552;28;19931;-49
2021/11/26 01:41:13;;;;;;;;;;;2.00;99.90;;;;;;5092543;28;19981;-48
2021/11/26 01:43:41;;;;;;;;;;;2.10;99.90;;;;;;5092256;28;19924;-48
2021/11/26 01:46:09;;;;;;;;;;;2.10;99.90;;;;;;5092042;28;19965;-49
2021/11/26 01:48:37;;;;;;;;;;;2.20;99.90;;;;;;5092185;28;19931;-49
2021/11/26 01:51:04;;;;;;;;;;;2.30;99.90;;;;;;5091507;28;19928;-49
2021/11/26 01:53:31;;;;;;;;;;;2.30;99.90;;;;;;5092615;28;19982;-48
2021/11/26 01:55:57;;;;;;;;;;;2.40;99.90;;;;;;5091954;28;20048;-49
2021/11/26 01:58:24;;;;;;;;;;;2.50;99.90;;;;;;5091344;28;19924;-49
2021/11/26 02:00:53;;;;;;;;;;;2.50;99.90;;;;;;5092006;28;19978;-48
2021/11/26 02:03:20;;;;;;;;;;;2.50;99.90;;;;;;5092398;28;20343;-48
2021/11/26 02:05:47;;;;;;;;;;;2.40;99.90;;;;;;5091725;28;19993;-49
2021/11/26 02:08:13;;;;;;;;;;;2.30;99.90;;;;;;5091951;28;20409;-49
2021/11/26 02:10:40;;;;;;;;;;;2.30;99.90;;;;;;5091273;28;20359;-49
2021/11/26 02:13:07;;;;;;;;;;;2.20;99.90;;;;;;5091903;28;19924;-49
2021/11/26 02:15:40;;;;;;;;;;;2.20;99.90;;;;;;5091684;28;19924;-49
2021/11/26 02:18:08;;;;;;;;;;;2.10;99.90;;;;;;5091689;28;19947;-49
2021/11/26 02:20:36;;;;;;;;;;;2.10;99.90;;;;;;5091335;28;19925;-48
2021/11/26 02:23:04;;;;;;;;;;;2.20;99.90;;;;;;5092123;28;19928;-49
2021/11/26 02:25:31;;;;;;;;;;;2.30;99.90;;;;;;5094988;28;20385;-49
2021/11/26 02:27:59;;;;;;;;;;;2.50;99.90;;;;;;5095770;28;19924;-49
2021/11/26 02:30:27;;;;;;;;;;;2.50;99.90;;;;;;5096408;28;19924;-49
2021/11/26 02:32:55;;;;;;;;;;;2.40;99.90;;;;;;5095848;28;19935;-48
2021/11/26 02:35:22;;;;;;;;;;;2.60;99.90;;;;;;5096107;28;19977;-49
2021/11/26 02:37:51;;;;;;;;;;;2.60;99.90;;;;;;5096014;28;19977;-49
2021/11/26 02:40:19;;;;;;;;;;;2.60;99.90;;;;;;5095773;28;19977;-48
2021/11/26 02:42:46;;;;;;;;;;;2.70;99.90;;;;;;5095335;28;19978;-48
2021/11/26 02:45:13;;;;;;;;;;;2.80;99.90;;;;;;5095359;28;19924;-49
2021/11/26 02:47:43;;;;;;;;;;;2.70;99.90;;;;;;5085474;28;19928;-48
2021/11/26 02:50:10;;;;;;;;;;;2.60;99.90;;;;;;5095581;28;19977;-48
2021/11/26 02:52:38;;;;;;;;;;;2.60;99.90;;;;;;5095351;28;19924;-49
2021/11/26 02:55:07;;;;;;;;;;;2.70;99.90;;;;;;5095309;28;19923;-49
2021/11/26 02:57:34;;;;;;;;;;;2.80;99.90;;;;;;5121051;22;19980;-54
2021/11/26 03:00:01;;;;;;;;;;;2.80;99.90;;;;;;5116120;28;19924;-53
2021/11/26 03:02:28;;;;;;;;;;;2.90;99.90;;;;;;5115736;28;20377;-54
2021/11/26 03:04:55;;;;;;;;;;;2.80;99.90;;;;;;5111479;28;19936;-52
2021/11/26 03:07:22;;;;;;;;;;;2.90;99.90;;;;;;5116183;28;20360;-53
2021/11/26 03:09:49;;;;;;;;;;;2.80;99.90;;;;;;5115905;28;19927;-52
2021/11/26 03:12:17;;;;;;;;;;;2.70;99.90;;;;;;5115669;28;19928;-52
2021/11/26 03:14:44;;;;;;;;;;;2.60;99.90;;;;;;5115537;28;20390;-53
2021/11/26 03:17:11;;;;;;;;;;;2.70;99.90;;;;;;5115566;28;20282;-52
2021/11/26 03:19:37;;;;;;;;;;;3.00;99.90;;;;;;5115114;28;19967;-52
2021/11/26 03:22:04;;;;;;;;;;;2.90;99.90;;;;;;5115588;28;19928;-53
2021/11/26 03:24:31;;;;;;;;;;;2.80;99.90;;;;;;5115592;28;19969;-51
2021/11/26 03:26:58;;;;;;;;;;;3.00;99.90;;;;;;5115259;28;19923;-52
2021/11/26 03:29:26;;;;;;;;;;;2.80;99.90;;;;;;5115714;28;19927;-52
2021/11/26 03:31:53;;;;;;;;;;;2.70;99.90;;;;;;5115472;28;20011;-53
2021/11/26 03:34:19;;;;;;;;;;;2.80;99.90;;;;;;5115639;28;19925;-52
2021/11/26 03:36:46;;;;;;;;;;;2.70;99.90;;;;;;5113802;28;20497;-52
2021/11/26 03:39:13;;;;;;;;;;;3.00;99.90;;;;;;5114928;28;20389;-53
2021/11/26 03:41:40;;;;;;;;;;;3.10;99.90;;;;;;5114895;28;19923;-52
2021/11/26 03:44:06;;;;;;;;;;;2.80;99.90;;;;;;5115524;28;19924;-52
2021/11/26 03:46:35;;;;;;;;;;;2.80;99.90;;;;;;5110245;28;20393;-52
2021/11/26 03:49:02;;;;;;;;;;;2.80;99.90;;;;;;5115644;28;19928;-52
2021/11/26 03:51:29;;;;;;;;;;;2.90;99.90;;;;;;5115109;28;19931;-52
2021/11/26 03:53:55;;;;;;;;;;;2.80;99.90;;;;;;5113803;28;20300;-53
2021/11/26 03:56:22;;;;;;;;;;;2.60;99.90;;;;;;5109587;28;19977;-52
2021/11/26 03:58:49;;;;;;;;;;;2.80;99.90;;;;;;5094569;28;19978;-54
2021/11/26 04:01:16;;;;;;;;;;;2.90;99.90;;;;;;5105468;28;19927;-53
2021/11/26 04:03:44;;;;;;;;;;;3.00;99.90;;;;;;5115020;28;19928;-52
2021/11/26 04:06:10;;;;;;;;;;;3.00;99.90;;;;;;5114478;28;19923;-52
2021/11/26 04:08:37;;;;;;;;;;;3.10;99.90;;;;;;5114973;28;19927;-53
2021/11/26 04:11:04;;;;;;;;;;;2.90;99.90;;;;;;5114522;28;19969;-52
2021/11/26 04:13:31;;;;;;;;;;;2.90;99.90;;;;;;5102840;28;20459;-52
2021/11/26 04:16:02;;;;;;;;;;;2.90;99.90;;;;;;5102657;28;19975;-54
2021/11/26 04:18:29;;;;;;;;;;;3.00;99.90;;;;;;5114561;28;19924;-53
2021/11/26 04:20:57;;;;;;;;;;;2.80;99.90;;;;;;5114272;28;20028;-53
2021/11/26 04:23:24;;;;;;;;;;;2.90;99.90;;;;;;5114845;28;19924;-52
2021/11/26 04:25:51;;;;;;;;;;;2.90;99.90;;;;;;5114562;28;19924;-53
2021/11/26 04:28:17;;;;;;;;;;;2.70;99.90;;;;;;5114488;28;19924;-53
2021/11/26 04:30:44;;;;;;;;;;;2.50;99.90;;;;;;5114398;28;19931;-53
2021/11/26 04:33:11;;;;;;;;;;;2.50;99.90;;;;;;5114497;28;19968;-52
2021/11/26 04:35:38;;;;;;;;;;;2.50;99.90;;;;;;5114223;28;19974;-53
2021/11/26 04:38:06;;;;;;;;;;;2.30;99.90;;;;;;5114596;28;19972;-52
2021/11/26 04:40:33;;;;;;;;;;;2.30;99.90;;;;;;5114021;28;20450;-52
2021/11/26 04:43:00;;;;;;;;;;;2.30;99.90;;;;;;5114524;28;19924;-53
2021/11/26 04:45:26;;;;;;;;;;;2.20;99.90;;;;;;5114196;28;19932;-52
2021/11/26 04:47:53;;;;;;;;;;;2.20;99.90;;;;;;5113997;28;19924;-52
2021/11/26 04:50:20;;;;;;;;;;;2.10;99.90;;;;;;5114307;28;19923;-55
2021/11/26 04:52:47;;;;;;;;;;;2.10;99.90;;;;;;5114553;28;19977;-51
2021/11/26 04:55:15;;;;;;;;;;;2.10;99.90;;;;;;5114298;28;19923;-52
2021/11/26 04:57:44;;;;;;;;;;;2.20;99.90;;;;;;5113841;28;19924;-53
2021/11/26 05:00:13;;;;;;;;;;;2.20;99.90;;;;;;5114068;28;19985;-53
2021/11/26 05:02:39;;;;;;;;;;;2.20;99.90;;;;;;5108534;28;19931;-51
2021/11/26 05:05:07;;;;;;;;;;;2.00;99.90;;;;;;5114238;28;19923;-53
2021/11/26 05:07:33;;;;;;;;;;;2.10;99.90;;;;;;5112223;28;19923;-52
2021/11/26 05:10:02;;;;;;;;;;;2.20;99.90;;;;;;5113874;28;19968;-54
2021/11/26 05:12:34;;;;;;;;;;;2.30;99.90;;;;;;5113747;28;20390;-53
2021/11/26 05:15:01;;;;;;;;;;;2.40;99.90;;;;;;5113584;28;19930;-53
2021/11/26 05:17:27;;;;;;;;;;;2.50;99.90;;;;;;5101340;28;19924;-53
2021/11/26 05:19:54;;;;;;;;;;;2.50;99.90;;;;;;5102617;28;19988;-52
2021/11/26 05:22:21;;;;;;;;;;;2.60;99.90;;;;;;5113348;28;19923;-52
2021/11/26 05:24:48;;;;;;;;;;;2.40;99.90;;;;;;5113394;28;19923;-53
2021/11/26 05:27:14;;;;;;;;;;;2.20;99.90;;;;;;5107376;28;19924;-54
2021/11/26 05:29:43;;;;;;;;;;;2.20;99.90;;;;;;5107410;28;19924;-52
2021/11/26 05:32:11;;;;;;;;;;;2.30;99.90;;;;;;5102158;28;20390;-52
2021/11/26 05:34:38;;;;;;;;;;;2.30;99.90;;;;;;5113506;28;20290;-52
2021/11/26 05:37:05;;;;;;;;;;;2.30;99.90;;;;;;5112616;28;19976;-52
2021/11/26 05:39:32;;;;;;;;;;;2.30;99.90;;;;;;5108899;28;19977;-52
2021/11/26 05:41:58;;;;;;;;;;;2.40;99.90;;;;;;5112607;28;19924;-52
2021/11/26 05:44:25;;;;;;;;;;;2.40;99.90;;;;;;5111487;28;20293;-53
2021/11/26 05:46:54;;;;;;;;;;;2.50;99.90;;;;;;5103779;28;20678;-52
2021/11/26 05:49:21;;;;;;;;;;;2.60;99.90;;;;;;5112940;28;19923;-52
2021/11/26 05:51:48;;;;;;;;;;;2.50;99.90;;;;;;5112882;28;19931;-53
2021/11/26 05:54:15;;;;;;;;;;;2.60;99.90;;;;;;5107695;28;19971;-52
2021/11/26 05:56:41;;;;;;;;;;;2.60;99.90;;;;;;5108344;28;19928;-53
2021/11/26 05:59:08;;;;;;;;;;;2.60;99.90;;;;;;5111852;28;19969;-53
2021/11/26 06:01:35;;;;;;;;;;;2.60;99.90;;;;;;5111823;28;20562;-52
2021/11/26 06:04:03;;;;;;;;;;;2.20;99.90;;;;;;5102824;28;19965;-53
2021/11/26 06:06:30;;;;;;;;;;;2.30;99.90;;;;;;5113307;28;20351;-53
2021/11/26 06:08:57;;;;;;;;;;;2.40;99.90;;;;;;5113873;28;19947;-53
2021/11/26 06:11:23;;;;;;;;;;;2.50;99.90;;;;;;5111827;28;20381;-53
2021/11/26 06:13:50;;;;;;;;;;;2.40;99.90;;;;;;5092534;28;19924;-53
2021/11/26 06:16:17;;;;;;;;;;;2.40;99.90;;;;;;5093293;28;19924;-53
2021/11/26 06:18:44;;;;;;;;;;;2.40;99.90;;;;;;5096848;28;19928;-54
2021/11/26 06:21:12;;;;;;;;;;;2.50;99.90;;;;;;5110685;28;19978;-53
2021/11/26 06:23:38;;;;;;;;;;;2.40;99.90;;;;;;5111891;28;19999;-53
2021/11/26 06:26:08;;;;;;;;;;;2.50;99.90;;;;;;5111650;28;19974;-52
2021/11/26 06:28:34;;;;;;;;;;;2.30;99.90;;;;;;5111572;28;19930;-53
2021/11/26 06:31:01;;;;;;;;;;;2.40;99.90;;;;;;5102145;28;20306;-53
2021/11/26 06:33:28;;;;;;;;;;;2.40;99.90;;;;;;5094866;28;19923;-53
2021/11/26 06:35:55;;;;;;;;;;;2.50;99.90;;;;;;5108196;28;19924;-53
2021/11/26 06:38:23;;;;;;;;;;;2.50;99.90;;;;;;5092113;28;19928;-54
2021/11/26 06:40:50;;;;;;;;;;;2.50;99.90;;;;;;5100072;28;19932;-54
2021/11/26 06:43:17;;;;;;;;;;;2.60;99.90;;;;;;5112149;28;20438;-53
2021/11/26 06:45:44;;;;;;;;;;;2.50;99.90;;;;;;5112309;28;20462;-53
2021/11/26 06:48:11;;;;;;;;;;;2.50;99.90;;;;;;5106438;28;19980;-55
2021/11/26 06:50:38;;;;;;;;;;;2.30;99.90;;;;;;5102292;28;20083;-52
2021/11/26 06:53:05;;;;;;;;;;;2.40;99.90;;;;;;5102912;28;19979;-53
2021/11/26 06:55:33;;;;;;;;;;;2.30;99.90;;;;;;5101618;28;19927;-53
2021/11/26 06:58:00;;;;;;;;;;;2.20;99.90;;;;;;5108257;28;19932;-53
2021/11/26 07:00:27;;;;;;;;;;;2.30;99.90;;;;;;5108279;28;19928;-53
2021/11/26 07:02:53;;;;;;;;;;;2.50;99.90;;;;;;5103867;28;20025;-52
2021/11/26 07:05:21;;;;;;;;;;;2.50;99.90;;;;;;5111683;28;19924;-53
2021/11/26 07:07:48;;;;;;;;;;;2.40;99.90;;;;;;5111558;28;20389;-53
2021/11/26 07:10:15;;;;;;;;;;;2.40;99.90;;;;;;5113535;28;20347;-53
2021/11/26 07:12:45;;;;;;;;;;;2.50;99.90;;;;;;5107021;28;19940;-53
2021/11/26 07:15:14;;;;;;;;;;;2.40;99.90;;;;;;5115494;28;19977;-53
2021/11/26 07:17:41;;;;;;;;;;;2.20;99.90;;;;;;5115177;28;19969;-55
2021/11/26 07:20:08;;;;;;;;;;;2.10;99.90;;;;;;5106115;28;19936;-53
2021/11/26 07:22:35;;;;;;;;;;;2.20;99.90;;;;;;5105032;28;20334;-53
2021/11/26 07:25:02;;;;;;;;;;;2.30;99.90;;;;;;5105040;28;19992;-55
2021/11/26 07:27:29;;;;;;;;;;;2.00;99.90;;;;;;5106257;28;19936;-54
2021/11/26 07:29:57;;;;;;;;;;;2.00;99.90;;;;;;5105769;28;19955;-56
2021/11/26 07:32:24;;;;;;;;;;;2.20;99.90;;;;;;5104641;28;19928;-53
2021/11/26 07:34:51;;;;;;;;;;;2.30;99.90;;;;;;5113639;28;19924;-52
2021/11/26 07:37:18;;;;;;;;;;;2.40;99.90;;;;;;5115166;28;19985;-53
2021/11/26 07:39:46;;;;;;;;;;;2.50;99.90;;;;;;5112769;28;19923;-53
2021/11/26 07:42:13;;;;;;;;;;;2.50;99.90;;;;;;5105105;28;19924;-53
2021/11/26 07:44:40;;;;;;;;;;;2.50;99.90;;;;;;5109504;28;19924;-54
2021/11/26 07:47:11;;;;;;;;;;;2.60;99.90;;;;;;5106049;28;19973;-54
2021/11/26 07:49:38;;;;;;;;;;;2.60;99.90;;;;;;5100574;28;19924;-53
2021/11/26 07:52:05;;;;;;;;;;;2.50;99.90;;;;;;5104073;28;19924;-53
2021/11/26 07:54:32;;;;;;;;;;;2.60;99.90;;;;;;5106724;28;19973;-53
2021/11/26 07:56:59;;;;;;;;;;;2.70;99.90;;;;;;5110664;28;19959;-52
2021/11/26 07:59:26;;;;;;;;;;;2.70;99.90;;;;;;5114891;28;20357;-53
2021/11/26 08:01:53;;;;;;;;;;;2.60;99.90;;;;;;5107561;28;19931;-52
2021/11/26 08:04:21;;;;;;;;;;;2.60;99.90;;;;;;5094819;28;19924;-53
2021/11/26 08:06:48;;;;;;;;;;;2.60;99.90;;;;;;5094687;28;19993;-53
2021/11/26 08:09:15;;;;;;;;;;;2.60;99.90;;;;;;5094520;28;19970;-52
2021/11/26 08:11:42;;;;;;;;;;;2.50;99.90;;;;;;5103137;28;19931;-53
2021/11/26 08:14:09;;;;;;;;;;;2.50;99.90;;;;;;5113601;28;19930;-53
2021/11/26 08:16:37;;;;;;;;;;;2.60;99.90;;;;;;5113091;28;19973;-53
2021/11/26 08:19:04;;;;;;;;;;;2.70;99.90;;;;;;5095738;28;19924;-52
2021/11/26 08:21:33;;;;;;;;;;;2.60;99.90;;;;;;5108298;28;20389;-52
2021/11/26 08:24:00;;;;;;;;;;;2.60;99.90;;;;;;5113736;28;19939;-54
2021/11/26 08:26:27;;;;;;;;;;;2.50;99.90;;;;;;5114510;28;19971;-50
2021/11/26 08:28:54;;;;;;;;;;;2.40;99.90;;;;;;5111609;28;20354;-51
2021/11/26 08:31:21;;;;;;;;;;;2.60;99.90;;;;;;5113735;28;20455;-51
2021/11/26 08:33:48;;;;;;;;;;;2.80;99.90;;;;;;5113913;28;19924;-50
2021/11/26 08:36:14;;;;;;;;;;;2.70;99.90;;;;;;5110016;28;20290;-51
2021/11/26 08:38:42;;;;;;;;;;;2.90;99.90;;;;;;5098719;28;19923;-50
2021/11/26 08:41:10;;;;;;;;;;;3.00;99.90;;;;;;5108158;28;20293;-51
2021/11/26 08:43:38;;;;;;;;;;;2.90;99.90;;;;;;5106184;28;19993;-51
2021/11/26 08:46:05;;;;;;;;;;;2.90;99.90;;;;;;5113078;28;19931;-51
2021/11/26 08:48:32;;;;;;;;;;;2.80;99.90;;;;;;5114067;28;19924;-51
2021/11/26 08:50:59;;;;;;;;;;;2.90;99.90;;;;;;5113537;28;20373;-51
2021/11/26 08:53:27;;;;;;;;;;;2.60;99.90;;;;;;5114123;28;19924;-51
2021/11/26 08:55:55;;;;;;;;;;;2.60;99.90;;;;;;5113848;28;19928;-51
2021/11/26 08:58:23;;;;;;;;;;;2.50;99.90;;;;;;5113931;28;20599;-52
2021/11/26 09:00:50;;;;;;;;;;;2.60;99.90;;;;;;5112727;28;19928;-51
2021/11/26 09:03:17;;;;;;;;;;;2.60;99.90;;;;;;5113291;28;20014;-51
2021/11/26 09:05:44;;;;;;;;;;;2.80;99.90;;;;;;5134728;22;20347;-50
2021/11/26 09:08:14;;;;;;;;;;;2.90;99.90;;;;;;5133067;27;19976;-51
2021/11/26 09:10:41;;;;;;;;;;;2.90;99.90;;;;;;5132935;27;19934;-52
2021/11/26 09:13:09;;;;;;;;;;;2.90;99.90;;;;;;5132551;27;19923;-50
2021/11/26 09:15:37;;;;;;;;;;;3.10;99.90;;;;;;5136806;27;19923;-50
2021/11/26 09:18:04;;;;;;;;;;;3.20;99.90;;;;;;5134546;27;19969;-50
2021/11/26 09:20:32;;;;;;;;;;;3.00;99.90;;;;;;5143587;27;19923;-50
2021/11/26 09:22:59;;;;;;;;;;;2.80;99.90;;;;;;5154717;27;19923;-50
2021/11/26 09:25:25;;;;;;;;;;;2.80;99.90;;;;;;5154801;27;19927;-51
2021/11/26 09:27:52;;;;;;;;;;;2.90;99.90;;;;;;5154471;27;19976;-50
2021/11/26 09:30:21;;;;;;;;;;;2.80;99.90;;;;;;5154368;27;19923;-52
2021/11/26 09:32:48;;;;;;;;;;;2.90;99.90;;;;;;5140706;27;19968;-50
2021/11/26 09:35:15;;;;;;;;;;;2.80;99.90;;;;;;5133847;27;19969;-50
2021/11/26 09:37:42;;;;;;;;;;;3.00;99.90;;;;;;5123841;27;19930;-51
2021/11/26 09:40:10;;;;;;;;;;;2.90;99.90;;;;;;5132833;27;19923;-50
2021/11/26 09:42:37;;;;;;;;;;;3.00;99.90;;;;;;5130382;27;19923;-50
2021/11/26 09:45:06;;;;;;;;;;;2.90;99.90;;;;;;5133314;27;19992;-50
2021/11/26 09:47:34;;;;;;;;;;;3.00;99.90;;;;;;5132393;27;19924;-50
2021/11/26 09:50:01;;;;;;;;;;;3.10;99.90;;;;;;5130966;27;19927;-50
2021/11/26 09:52:27;;;;;;;;;;;3.20;99.90;;;;;;5132468;27;19923;-50
2021/11/26 09:54:54;;;;;;;;;;;3.20;99.90;;;;;;5131638;27;19988;-50
2021/11/26 09:57:21;;;;;;;;;;;3.10;99.90;;;;;;5131474;27;19927;-50
2021/11/26 09:59:48;;;;;;;;;;;3.30;99.90;;;;;;5132494;27;19976;-50
2021/11/26 10:02:15;;;;;;;;;;;3.10;99.90;;;;;;5131954;27;19995;-51
2021/11/26 10:04:44;;;;;;;;;;;3.00;99.90;;;;;;5131839;27;19968;-50
2021/11/26 10:07:11;;;;;;;;;;;2.80;99.90;;;;;;5131326;27;20397;-50
2021/11/26 10:09:38;;;;;;;;;;;2.80;99.90;;;;;;5133166;27;19924;-50
2021/11/26 10:12:06;;;;;;;;;;;2.90;99.90;;;;;;5131853;27;19968;-50
2021/11/26 10:14:34;;;;;;;;;;;3.00;99.90;;;;;;5132290;28;20389;-50
2021/11/26 10:17:06;;;;;;;;;;;3.00;99.90;;;;;;5131142;28;19931;-50
2021/11/26 10:19:34;;;;;;;;;;;3.20;99.90;;;;;;5133021;27;20388;-50
2021/11/26 10:22:12;;;;;;;;;;;3.20;99.90;;;;;;5131001;28;20010;-51
2021/11/26 10:24:38;;;;;;;;;;;3.20;99.90;;;;;;5132391;28;19924;-50
2021/11/26 10:27:05;;;;;;;;;;;3.30;99.90;;;;;;5130600;28;19939;-50
2021/11/26 10:29:33;;;;;;;;;;;3.50;99.90;;;;;;5133138;28;19927;-52
2021/11/26 10:32:08;;;;;;;;;;;3.50;99.90;;;;;;5131153;28;19932;-51
2021/11/26 10:34:35;;;;;;;;;;;3.50;99.90;;;;;;5132025;27;19984;-50
2021/11/26 10:37:03;;;;;;;;;;;3.50;99.90;;;;;;5131133;27;19924;-50
2021/11/26 10:39:31;;;;;;;;;;;3.50;99.90;;;;;;5132081;28;20438;-50
2021/11/26 10:41:59;;;;;;;;;;;3.50;99.90;;;;;;5131976;27;19923;-50
2021/11/26 10:44:35;;;;;;;;;;;3.50;99.90;;;;;;5131999;27;19927;-50
2021/11/26 10:47:07;;;;;;;;;;;3.60;99.90;;;;;;5134767;27;19928;-50
2021/11/26 10:49:49;;;;;;;;;;;3.70;99.90;;;;;;5132544;27;19927;-51
2021/11/26 10:57:57;;;;;;;;;;;3.60;99.90;;;;;;5133987;27;20056;-52
2021/11/26 11:00:24;;;;;;;;;;;3.60;99.90;;;;;;5135744;27;19924;-50
2021/11/26 11:02:53;;;;;;;;;;;3.60;99.90;;;;;;5136037;27;19928;-50
2021/11/26 11:05:24;;;;;;;;;;;3.70;99.90;;;;;;5136703;27;19924;-50
2021/11/26 11:07:53;;;;;;;;;;;3.80;99.90;;;;;;5136605;27;19927;-51
2021/11/26 11:10:28;;;;;;;;;;;3.70;99.90;;;;;;5135921;27;19927;-51
2021/11/26 11:12:55;;;;;;;;;;;3.70;99.90;;;;;;5136553;27;19928;-50
2021/11/26 11:15:22;;;;;;;;;;;3.60;99.90;;;;;;5146375;27;19927;-50
2021/11/26 11:17:50;;;;;;;;;;;3.30;99.90;;;;;;5140081;27;19931;-49
2021/11/26 11:20:17;;;;;;;;;;;3.20;99.90;;;;;;5118078;27;19923;-49
2021/11/26 11:22:44;;;;;;;;;;;3.20;99.90;;;;;;5124997;27;19924;-50
2021/11/26 11:25:13;;;;;;;;;;;3.30;99.90;;;;;;5135548;27;19979;-50
2021/11/26 11:27:40;;;;;;;;;;;3.30;99.90;;;;;;5136232;27;19976;-50
2021/11/26 11:30:09;;;;;;;;;;;3.50;99.90;;;;;;5137569;27;19968;-51
2021/11/26 11:32:36;;;;;;;;;;;3.40;99.90;;;;;;5156715;27;19975;-52
2021/11/26 11:35:05;;;;;;;;;;;3.40;99.90;;;;;;5135845;27;19924;-51
2021/11/26 11:37:32;;;;;;;;;;;3.40;99.90;;;;;;5135893;27;19927;-51
2021/11/26 11:40:02;;;;;;;;;;;3.40;99.90;;;;;;5136014;27;19924;-50
2021/11/26 11:42:34;;;;;;;;;;;3.60;99.90;;;;;;5135945;27;19924;-50
2021/11/26 11:45:07;;;;;;;;;;;3.80;99.90;;;;;;5135799;27;19923;-51
2021/11/26 11:47:34;;;;;;;;;;;3.50;99.90;;;;;;5135939;27;19988;-51
2021/11/26 11:50:08;;;;;;;;;;;3.40;99.90;;;;;;5135183;27;19923;-51
2021/11/26 11:52:39;;;;;;;;;;;3.40;99.90;;;;;;5133915;27;19931;-50
2021/11/26 11:55:05;;;;;;;;;;;3.50;99.90;;;;;;5138321;27;20347;-50
2021/11/26 11:57:39;;;;;;;;;;;3.60;99.90;;;;;;5133529;27;19968;-50
2021/11/26 12:00:08;;;;;;;;;;;3.50;99.90;;;;;;5130783;27;19980;-50
2021/11/26 12:02:35;;;;;;;;;;;3.50;99.90;;;;;;5125562;27;19930;-50
2021/11/26 12:05:02;;;;;;;;;;;3.60;99.90;;;;;;5134319;27;19927;-53
2021/11/26 12:07:30;;;;;;;;;;;3.60;99.90;;;;;;5133416;27;19923;-50
2021/11/26 12:10:08;;;;;;;;;;;3.30;99.90;;;;;;5124366;27;19927;-50
2021/11/26 12:12:49;;;;;;;;;;;3.30;99.90;;;;;;5126716;27;19923;-51
2021/11/26 12:15:23;;;;;;;;;;;3.30;99.90;;;;;;5133149;27;19924;-51
2021/11/26 12:17:56;;;;;;;;;;;3.00;99.90;;;;;;5134738;27;19924;-51
2021/11/26 12:20:25;;;;;;;;;;;2.90;99.90;;;;;;5135216;27;19988;-51
2021/11/26 12:22:55;;;;;;;;;;;3.10;99.90;;;;;;5135056;27;19931;-52
2021/11/26 12:25:31;;;;;;;;;;;3.00;99.90;;;;;;5152950;27;19970;-50
2021/11/26 12:28:03;;;;;;;;;;;3.00;99.90;;;;;;5116576;27;19967;-50
2021/11/26 12:30:30;;;;;;;;;;;3.10;99.90;;;;;;5114270;27;20328;-50
2021/11/26 12:32:57;;;;;;;;;;;2.90;99.90;;;;;;5115776;27;20397;-51
2021/11/26 12:35:24;;;;;;;;;;;3.10;99.90;;;;;;5120569;27;20354;-50
2021/11/26 12:37:54;;;;;;;;;;;3.20;99.90;;;;;;5132955;27;20002;-51
2021/11/26 12:40:23;;;;;;;;;;;3.10;99.90;;;;;;5131960;27;19927;-52
2021/11/26 12:42:58;;;;;;;;;;;3.00;99.90;;;;;;5133821;27;19923;-50
2021/11/26 12:45:29;;;;;;;;;;;3.30;99.90;;;;;;5133865;27;19963;-51
2021/11/26 12:47:58;;;;;;;;;;;3.40;99.90;;;;;;5131066;27;19945;-50
2021/11/26 12:53:12;;;;;;;;;;;3.30;99.90;;;;;;5127170;27;19926;-50
2021/11/26 12:55:43;;;;;;;;;;;3.30;99.90;;;;;;5134412;27;19973;-50
2021/11/26 12:58:11;;;;;;;;;;;3.10;99.90;;;;;;5129041;27;19968;-51
2021/11/26 13:00:38;;;;;;;;;;;3.20;99.90;;;;;;5126288;27;19976;-50
2021/11/26 13:03:05;;;;;;;;;;;3.10;99.90;;;;;;5133650;27;19924;-50
2021/11/26 13:05:32;;;;;;;;;;;3.10;99.90;;;;;;5132151;27;20447;-50
2021/11/26 13:07:59;;;;;;;;;;;3.10;99.90;;;;;;5128933;27;19927;-50
2021/11/26 13:10:26;;;;;;;;;;;3.20;99.90;;;;;;5133153;27;19923;-50
2021/11/26 13:12:55;;;;;;;;;;;3.20;99.90;;;;;;5133760;27;19923;-50
2021/11/26 13:15:25;;;;;;;;;;;3.20;99.90;;;;;;5134203;27;19927;-50
2021/11/26 13:17:53;;;;;;;;;;;3.10;99.90;;;;;;5130575;27;20361;-51
2021/11/26 13:20:22;;;;;;;;;;;3.20;99.90;;;;;;5132344;27;20006;-53
2021/11/26 13:22:52;;;;;;;;;;;3.30;99.90;;;;;;5133443;27;19927;-50
2021/11/26 13:25:20;;;;;;;;;;;3.10;99.90;;;;;;5134070;27;19976;-50
2021/11/26 13:27:54;;;;;;;;;;;3.20;99.90;;;;;;5130985;27;20534;-50
2021/11/26 13:30:21;;;;;;;;;;;3.00;99.90;;;;;;5127840;27;20457;-50
2021/11/26 13:32:50;;;;;;;;;;;3.10;99.90;;;;;;5123932;27;21745;-51
2021/11/26 13:35:26;;;;;;;;;;;2.90;99.90;;;;;;5124352;27;20104;-50
2021/11/26 13:37:55;;;;;;;;;;;3.00;99.90;;;;;;5126584;27;19924;-51
2021/11/26 13:40:22;;;;;;;;;;;3.00;99.90;;;;;;5122998;27;19931;-49
2021/11/26 13:42:58;;;;;;;;;;;3.00;99.90;;;;;;5127758;27;19927;-50
2021/11/26 13:45:30;;;;;;;;;;;3.10;99.90;;;;;;5128171;27;20309;-50
2021/11/26 13:47:58;;;;;;;;;;;3.10;99.90;;;;;;5124183;27;19928;-49
2021/11/26 13:50:25;;;;;;;;;;;3.20;99.90;;;;;;5126324;27;19923;-50
2021/11/26 13:52:52;;;;;;;;;;;3.10;99.90;;;;;;5127019;27;19931;-49
2021/11/26 13:55:19;;;;;;;;;;;3.10;99.90;;;;;;5124820;27;19938;-49
2021/11/26 13:57:45;;;;;;;;;;;3.00;99.90;;;;;;5122843;27;19923;-49
2021/11/26 14:00:14;;;;;;;;;;;3.10;99.90;;;;;;5124120;27;19981;-50
2021/11/26 14:02:50;;;;;;;;;;;3.20;99.90;;;;;;5123148;27;21035;-50
2021/11/26 14:05:28;;;;;;;;;;;3.20;99.90;;;;;;5123103;27;19927;-49
2021/11/26 14:08:05;;;;;;;;;;;3.20;99.90;;;;;;5130217;27;19928;-50
2021/11/26 14:10:32;;;;;;;;;;;3.10;99.90;;;;;;5132997;27;19927;-49
2021/11/26 14:13:00;;;;;;;;;;;3.30;99.90;;;;;;5132951;27;19924;-49
2021/11/26 14:15:27;;;;;;;;;;;3.20;99.90;;;;;;5133332;27;20051;-49
2021/11/26 14:17:57;;;;;;;;;;;3.10;99.90;;;;;;5133279;27;19927;-50
2021/11/26 14:20:24;;;;;;;;;;;3.10;99.90;;;;;;5132360;27;19928;-49
2021/11/26 14:22:53;;;;;;;;;;;3.10;99.90;;;;;;5133004;28;20340;-50
2021/11/26 14:25:21;;;;;;;;;;;3.00;99.90;;;;;;5131923;28;19958;-49
2021/11/26 14:27:49;;;;;;;;;;;3.10;99.90;;;;;;5133128;28;19923;-50
2021/11/26 14:30:19;;;;;;;;;;;3.10;99.90;;;;;;5133096;28;19930;-49
2021/11/26 14:32:52;;;;;;;;;;;3.00;99.90;;;;;;5133010;28;19972;-50
2021/11/26 14:35:21;;;;;;;;;;;3.00;99.90;;;;;;5133065;28;19927;-49
2021/11/26 14:37:49;;;;;;;;;;;2.90;99.90;;;;;;5127844;28;19923;-51
2021/11/26 14:40:21;;;;;;;;;;;2.90;99.90;;;;;;5124018;28;19923;-51
2021/11/26 14:42:50;;;;;;;;;;;2.80;99.90;;;;;;5132184;27;19928;-50